CheckWX is a tool to help pilots better visualize weather data.  It is not intended as a substitute for an official pre-flight weather briefing.

21:58:57 UTC

KCPS METAR
St Louis Downtown Airport
Cahokia/St Louis, Illinois, USA
Current

1 hour ago

KCPS 232053Z 29006KT 10SM SCT034 27/19 A3009 RMK AO2 SLP184 T02670194 53007
Observed
May-23 @ 20:53 UTC
Wind
  • 290° at 6 KTS
Visibility
10 SM
Flight Rules
VFR
Cloud Levels
  • Scattered at 3,400' AGL
Temperature
27°C / 81°F
Dewpoint
19°C / 66°F
Heat Index
28°C / 83°F
Humidity
62%
Altimeter
30.09" Hg
Pressure
1018.92 hPa
Previous

2 hours ago

KCPS 231953Z 30006KT 10SM CLR 26/20 A3007 RMK AO2 SLP179 T02610200
Observed
May-23 @ 19:53 UTC
Wind
  • 300° at 6 KTS
Visibility
10 SM
Flight Rules
VFR
Cloud Levels
  • Clear skies
Temperature
26°C / 79°F
Dewpoint
20°C / 68°F
Humidity
70%
Altimeter
30.07" Hg
Pressure
1018.32 hPa
Previous

3 hours ago

KCPS 231853Z VRB04KT 10SM FEW035 26/21 A3006 RMK AO2 SLP174 T02560211
Observed
May-23 @ 18:53 UTC
Wind
  • Variable at 4 KTS
Visibility
10 SM
Flight Rules
VFR
Cloud Levels
  • Few at 3,500' AGL
Temperature
26°C / 79°F
Dewpoint
21°C / 70°F
Humidity
74%
Altimeter
30.06" Hg
Pressure
1017.92 hPa